createdAt,value
2022-10-19T00:05:21.224Z,101256.17
2022-10-19T00:07:54.659Z,101256.67
2022-10-19T00:10:26.821Z,101257.92
2022-10-19T00:12:59.110Z,101258.98
2022-10-19T00:15:31.178Z,101263.00
2022-10-19T00:18:03.034Z,101258.87
2022-10-19T00:20:34.829Z,101267.77
2022-10-19T00:23:06.840Z,101265.56
2022-10-19T00:25:38.860Z,101269.52
2022-10-19T00:31:02.793Z,101271.55
2022-10-19T00:33:34.748Z,101269.92
2022-10-19T00:36:07.764Z,101263.05
2022-10-19T00:38:39.588Z,101262.68
2022-10-19T00:41:11.889Z,101255.07
2022-10-19T00:44:01.513Z,101254.70
2022-10-19T00:46:36.118Z,101254.62
2022-10-19T00:49:11.066Z,101261.51
2022-10-19T00:51:46.218Z,101258.48
2022-10-19T00:54:18.758Z,101257.64
2022-10-19T00:56:54.301Z,101258.39
2022-10-19T00:59:28.285Z,101260.98
2022-10-19T01:02:01.854Z,101259.50
2022-10-19T01:04:37.454Z,101256.73
2022-10-19T01:07:09.567Z,101258.61
2022-10-19T01:09:41.661Z,101259.50
2022-10-19T01:12:24.299Z,101253.33
2022-10-19T01:15:11.819Z,101248.96
2022-10-19T01:17:59.144Z,101252.12
2022-10-19T01:21:04.169Z,101247.85
2022-10-19T01:24:09.262Z,101242.64
2022-10-19T01:27:08.711Z,101246.35
2022-10-19T01:29:59.930Z,101241.66
2022-10-19T01:32:40.183Z,101235.94
2022-10-19T01:35:22.792Z,101238.70
2022-10-19T01:38:03.303Z,101238.12
2022-10-19T01:40:44.319Z,101244.65
2022-10-19T01:43:26.257Z,101247.19
2022-10-19T01:46:05.706Z,101248.78
2022-10-19T01:48:41.194Z,101242.76
2022-10-19T01:51:18.000Z,101239.72
2022-10-19T01:53:54.062Z,101241.89
2022-10-19T01:56:29.026Z,101234.71
2022-10-19T01:59:06.255Z,101228.45
2022-10-19T02:01:42.019Z,101229.36
2022-10-19T02:04:16.746Z,101231.79
2022-10-19T02:06:48.889Z,101230.98
2022-10-19T02:09:20.630Z,101228.05
2022-10-19T02:11:57.663Z,101222.16
2022-10-19T02:14:34.047Z,101228.44
2022-10-19T02:17:10.341Z,101226.71
2022-10-19T02:19:42.335Z,101216.70
2022-10-19T02:22:14.874Z,101217.58
2022-10-19T02:24:46.549Z,101215.46
2022-10-19T02:27:19.106Z,101221.06
2022-10-19T02:29:50.829Z,101221.68
2022-10-19T02:32:22.935Z,101220.97
2022-10-19T02:34:55.587Z,101223.44
2022-10-19T02:37:27.841Z,101230.00
2022-10-19T02:40:00.741Z,101228.59
2022-10-19T02:42:39.720Z,101228.85
2022-10-19T02:45:15.456Z,101226.98
2022-10-19T02:47:52.678Z,101232.10
2022-10-19T02:50:25.267Z,101231.00
2022-10-19T02:52:59.130Z,101228.55
2022-10-19T02:55:31.887Z,101221.42
2022-10-19T02:58:01.978Z,101219.13
2022-10-19T03:00:33.715Z,101220.23
2022-10-19T03:03:05.738Z,101220.23
2022-10-19T03:05:37.564Z,101223.73
2022-10-19T03:08:09.223Z,101223.54
2022-10-19T03:10:40.847Z,101214.14
2022-10-19T03:13:12.444Z,101214.01
2022-10-19T03:15:43.983Z,101218.73
2022-10-19T03:18:15.554Z,101217.67
2022-10-19T03:20:47.201Z,101213.31
2022-10-19T03:23:18.907Z,101208.77
2022-10-19T03:25:50.587Z,101223.94
2022-10-19T03:28:22.182Z,101224.11
2022-10-19T03:30:53.774Z,101220.63
2022-10-19T03:36:21.906Z,101220.70
2022-10-19T03:38:55.019Z,101219.08
2022-10-19T03:41:28.194Z,101216.61
2022-10-19T03:46:38.651Z,101213.48
2022-10-19T03:49:13.397Z,101215.11
2022-10-19T03:51:45.088Z,101210.75
2022-10-19T03:54:18.467Z,101212.64
2022-10-19T03:56:50.076Z,101213.74
2022-10-19T03:59:21.832Z,101212.91
2022-10-19T04:01:53.463Z,101214.30
2022-10-19T04:04:25.104Z,101212.86
2022-10-19T04:06:56.938Z,101216.10
2022-10-19T04:09:28.731Z,101216.52
2022-10-19T04:12:00.335Z,101221.70
2022-10-19T04:14:33.122Z,101222.04
2022-10-19T04:17:12.028Z,101225.78
2022-10-19T04:19:43.702Z,101225.87
2022-10-19T04:22:17.051Z,101225.80
2022-10-19T04:24:48.917Z,101223.71
2022-10-19T04:27:20.919Z,101227.86
2022-10-19T04:29:52.866Z,101225.61
2022-10-19T04:32:24.497Z,101230.32
2022-10-19T04:34:56.123Z,101233.63
2022-10-19T04:37:27.874Z,101235.48
2022-10-19T04:39:59.574Z,101228.79
2022-10-19T04:42:31.281Z,101231.12
2022-10-19T04:45:03.015Z,101233.16
2022-10-19T04:47:35.007Z,101228.89
2022-10-19T04:50:07.636Z,101228.08
2022-10-19T04:52:39.544Z,101224.38
2022-10-19T04:55:11.941Z,101225.35
2022-10-19T04:57:44.919Z,101237.38
2022-10-19T05:00:17.825Z,101241.38
2022-10-19T05:02:49.955Z,101233.98
2022-10-19T05:05:21.609Z,101234.89
2022-10-19T05:07:53.357Z,101235.41
2022-10-19T05:10:25.641Z,101232.54
2022-10-19T05:12:57.661Z,101228.50
2022-10-19T05:15:29.801Z,101227.35
2022-10-19T05:18:02.001Z,101231.64
2022-10-19T05:20:33.790Z,101241.30
2022-10-19T05:23:07.304Z,101243.25
2022-10-19T05:25:39.523Z,101241.85
2022-10-19T05:28:11.210Z,101244.31
2022-10-19T05:30:46.732Z,101242.42
2022-10-19T05:33:20.543Z,101246.07
2022-10-19T05:35:52.191Z,101245.46
2022-10-19T05:38:23.848Z,101250.14
2022-10-19T05:40:55.645Z,101249.20
2022-10-19T05:43:27.292Z,101259.61
2022-10-19T05:46:03.339Z,101261.11
2022-10-19T05:48:35.925Z,101257.67
2022-10-19T05:51:09.654Z,101249.27
2022-10-19T05:53:41.578Z,101255.52
2022-10-19T05:56:17.750Z,101262.23
2022-10-19T05:58:50.436Z,101258.84
2022-10-19T06:01:23.437Z,101266.94
2022-10-19T06:03:56.632Z,101268.55
2022-10-19T06:06:29.502Z,101270.33
2022-10-19T06:09:02.075Z,101273.27
2022-10-19T06:11:36.068Z,101273.80
2022-10-19T06:14:10.144Z,101281.35
2022-10-19T06:16:43.105Z,101283.33
2022-10-19T06:19:14.797Z,101282.84
2022-10-19T06:21:47.028Z,101279.52
2022-10-19T06:24:18.731Z,101283.30
2022-10-19T06:26:50.673Z,101278.60
2022-10-19T06:29:22.345Z,101284.49
2022-10-19T06:31:56.107Z,101285.67
2022-10-19T06:34:30.120Z,101287.20
2022-10-19T06:37:02.057Z,101290.69
2022-10-19T06:39:33.843Z,101289.40
2022-10-19T06:42:05.601Z,101294.25
2022-10-19T06:44:37.371Z,101297.16
2022-10-19T06:47:08.948Z,101296.15
2022-10-19T06:49:40.861Z,101296.01
2022-10-19T06:52:12.646Z,101299.15
2022-10-19T06:54:44.664Z,101304.43
2022-10-19T06:57:16.536Z,101308.98
2022-10-19T06:59:51.363Z,101309.64
2022-10-19T07:02:25.552Z,101318.91
2022-10-19T07:04:57.564Z,101318.57
2022-10-19T07:07:29.330Z,101323.61
2022-10-19T07:10:01.227Z,101321.50
2022-10-19T07:12:33.229Z,101326.43
2022-10-19T07:15:05.225Z,101330.40
2022-10-19T07:17:37.153Z,101330.19
2022-10-19T07:20:11.773Z,101330.31
2022-10-19T07:22:43.495Z,101331.73
2022-10-19T07:25:15.250Z,101335.87
2022-10-19T07:27:47.113Z,101340.00
2022-10-19T07:30:20.646Z,101337.15
2022-10-19T07:32:52.397Z,101335.83
2022-10-19T07:35:24.178Z,101336.50
2022-10-19T07:37:55.988Z,101343.38
2022-10-19T07:40:27.668Z,101345.83
2022-10-19T07:42:59.324Z,101346.20
2022-10-19T07:45:31.277Z,101343.36
2022-10-19T07:48:03.188Z,101349.31
2022-10-19T07:50:35.226Z,101345.64
2022-10-19T07:53:07.208Z,101347.45
2022-10-19T07:55:39.124Z,101348.70
2022-10-19T07:58:10.767Z,101352.09
2022-10-19T08:00:42.838Z,101344.64
2022-10-19T08:06:09.937Z,101344.21
2022-10-19T08:08:42.523Z,101341.36
2022-10-19T08:11:16.672Z,101338.63
2022-10-19T08:13:48.863Z,101349.30
2022-10-19T08:16:28.929Z,101346.63
2022-10-19T08:19:02.736Z,101351.62
2022-10-19T08:21:35.255Z,101349.63
2022-10-19T08:24:08.288Z,101352.30
2022-10-19T08:26:40.141Z,101351.25
2022-10-19T08:29:15.506Z,101352.83
2022-10-19T08:31:49.180Z,101355.33
2022-10-19T08:34:21.225Z,101351.73
2022-10-19T08:36:52.950Z,101354.05
2022-10-19T08:39:25.637Z,101366.54
2022-10-19T08:42:00.474Z,101358.16
2022-10-19T08:45:03.640Z,101355.80
2022-10-19T08:47:43.148Z,101356.23
2022-10-19T08:50:22.519Z,101357.80
2022-10-19T08:53:02.442Z,101360.66
2022-10-19T08:55:45.687Z,101354.17
2022-10-19T08:58:34.349Z,101360.77
2022-10-19T09:01:14.611Z,101359.90
2022-10-19T09:03:55.395Z,101361.16
2022-10-19T09:06:34.372Z,101357.16
2022-10-19T09:09:06.510Z,101360.44
2022-10-19T09:11:45.369Z,101360.66
2022-10-19T09:14:22.971Z,101362.58
2022-10-19T09:16:55.681Z,101364.10
2022-10-19T09:19:30.157Z,101364.31
2022-10-19T09:22:06.673Z,101369.41
2022-10-19T09:24:44.879Z,101370.86
2022-10-19T09:27:22.763Z,101369.05
2022-10-19T09:29:58.442Z,101371.77
2022-10-19T09:32:34.762Z,101369.55
2022-10-19T09:35:17.735Z,101371.48
2022-10-19T09:37:51.471Z,101373.19
2022-10-19T09:40:26.495Z,101379.44
2022-10-19T09:43:02.930Z,101379.15
2022-10-19T09:45:45.659Z,101377.56
2022-10-19T09:48:27.663Z,101383.90
2022-10-19T09:51:03.368Z,101384.30
2022-10-19T09:53:35.709Z,101390.23
2022-10-19T09:56:09.655Z,101392.67
2022-10-19T09:58:50.919Z,101394.55
2022-10-19T10:01:41.653Z,101396.97
2022-10-19T10:04:19.413Z,101397.77
2022-10-19T10:06:51.188Z,101395.67
2022-10-19T10:09:27.323Z,101398.48
2022-10-19T10:12:01.394Z,101401.45
2022-10-19T10:14:39.664Z,101404.32
2022-10-19T10:17:18.911Z,101410.34
2022-10-19T10:20:07.055Z,101408.36
2022-10-19T10:22:39.456Z,101411.86
2022-10-19T10:25:19.866Z,101409.95
2022-10-19T10:27:59.930Z,101410.79
2022-10-19T10:30:37.832Z,101417.77
2022-10-19T10:33:33.315Z,101431.62
2022-10-19T10:36:12.415Z,101437.84
2022-10-19T10:38:47.150Z,101430.92
2022-10-19T10:41:23.190Z,101432.60
2022-10-19T10:44:04.562Z,101434.19
2022-10-19T10:46:42.837Z,101434.52
2022-10-19T10:49:24.223Z,101434.88
2022-10-19T10:52:00.892Z,101438.84
2022-10-19T10:54:33.520Z,101440.04
2022-10-19T10:57:16.706Z,101441.82
2022-10-19T10:59:55.364Z,101441.44
2022-10-19T11:02:35.995Z,101446.55
2022-10-19T11:05:12.897Z,101449.64
2022-10-19T11:07:47.484Z,101448.67
2022-10-19T11:10:27.779Z,101449.20
2022-10-19T11:13:07.736Z,101452.27
2022-10-19T11:15:47.337Z,101450.48
2022-10-19T11:18:22.670Z,101452.17
2022-10-19T11:21:05.543Z,101447.73
2022-10-19T11:23:55.031Z,101445.27
2022-10-19T11:26:43.060Z,101447.55
2022-10-19T11:29:28.899Z,101444.69
2022-10-19T11:32:01.584Z,101442.55
2022-10-19T11:34:56.136Z,101444.78
2022-10-19T11:37:35.203Z,101445.52
2022-10-19T11:40:22.163Z,101444.42
2022-10-19T11:43:05.000Z,101441.53
2022-10-19T11:45:49.376Z,101440.45
2022-10-19T11:48:43.048Z,101438.48
2022-10-19T11:51:23.637Z,101441.63
2022-10-19T11:54:13.739Z,101437.38
2022-10-19T11:57:11.433Z,101441.52
2022-10-19T12:00:15.471Z,101437.52
2022-10-19T12:03:20.235Z,101437.73
2022-10-19T12:06:08.268Z,101430.28
2022-10-19T12:08:58.705Z,101435.92
2022-10-19T12:11:48.208Z,101429.04
2022-10-19T12:14:24.541Z,101428.78
2022-10-19T12:16:59.812Z,101429.94
2022-10-19T12:19:33.975Z,101428.80
2022-10-19T12:22:08.428Z,101431.80
2022-10-19T12:24:40.164Z,101432.90
2022-10-19T12:27:17.361Z,101439.48
2022-10-19T12:29:51.622Z,101437.09
2022-10-19T12:32:26.094Z,101438.92
2022-10-19T12:35:03.358Z,101432.20
2022-10-19T12:37:43.076Z,101425.73
2022-10-19T12:40:26.560Z,101429.30
2022-10-19T12:43:09.315Z,101428.70
2022-10-19T12:45:46.153Z,101429.64
2022-10-19T12:48:23.128Z,101431.21
2022-10-19T12:51:13.557Z,101433.38
2022-10-19T12:53:49.429Z,101433.91
2022-10-19T12:56:25.671Z,101435.77
2022-10-19T12:59:01.649Z,101436.02
2022-10-19T13:01:45.386Z,101434.02
2022-10-19T13:04:20.552Z,101436.42
2022-10-19T13:07:01.622Z,101436.48
2022-10-19T13:09:36.389Z,101437.35
2022-10-19T13:12:44.837Z,101439.62
2022-10-19T13:15:43.633Z,101439.20
2022-10-19T13:18:17.893Z,101446.80
2022-10-19T13:20:54.827Z,101439.85
2022-10-19T13:23:42.837Z,101442.16
2022-10-19T13:26:35.645Z,101442.89
2022-10-19T13:29:28.812Z,101438.36
2022-10-19T13:32:38.563Z,101444.95
2022-10-19T13:35:35.283Z,101446.17
2022-10-19T13:38:33.492Z,101447.84
2022-10-19T13:41:10.074Z,101449.59
2022-10-19T13:43:52.331Z,101455.36
2022-10-19T13:46:35.781Z,101457.58
2022-10-19T13:49:33.019Z,101460.52
2022-10-19T13:52:22.589Z,101460.55
2022-10-19T13:55:19.865Z,101460.61
2022-10-19T13:58:04.124Z,101457.97
2022-10-19T14:00:51.079Z,101457.91
2022-10-19T14:03:41.841Z,101458.30
2022-10-19T14:06:28.367Z,101459.52
2022-10-19T14:09:20.850Z,101457.91
2022-10-19T14:11:55.556Z,101460.69
2022-10-19T14:14:29.376Z,101457.17
2022-10-19T14:17:04.405Z,101460.86
2022-10-19T14:19:45.098Z,101462.64
2022-10-19T14:22:27.521Z,101460.36
2022-10-19T14:25:19.297Z,101458.86
2022-10-19T14:28:02.248Z,101459.77
2022-10-19T14:30:36.262Z,101458.83
2022-10-19T14:33:17.808Z,101463.42
2022-10-19T14:35:52.348Z,101459.91
2022-10-19T14:38:29.505Z,101464.90
2022-10-19T14:41:01.263Z,101465.81
2022-10-19T14:43:35.594Z,101468.55
2022-10-19T14:46:12.903Z,101465.15
2022-10-19T14:48:46.996Z,101467.71
2022-10-19T14:54:24.617Z,101477.30
2022-10-19T14:57:00.902Z,101477.07
2022-10-19T14:59:36.989Z,101478.45
2022-10-19T15:02:20.126Z,101482.36
2022-10-19T15:04:53.936Z,101483.61
2022-10-19T15:07:31.464Z,101485.60
2022-10-19T15:10:06.367Z,101486.76
2022-10-19T15:12:41.615Z,101486.48
2022-10-19T15:15:20.725Z,101488.14
2022-10-19T15:17:57.811Z,101489.63
2022-10-19T15:20:43.752Z,101490.23
2022-10-19T15:23:45.328Z,101496.27
2022-10-19T15:26:21.647Z,101495.09
2022-10-19T15:28:55.140Z,101491.17
2022-10-19T15:31:30.075Z,101492.80
2022-10-19T15:34:03.817Z,101495.85
2022-10-19T15:36:35.720Z,101499.02
2022-10-19T15:39:24.904Z,101499.48
2022-10-19T15:41:57.292Z,101506.98
2022-10-19T15:44:41.729Z,101503.57
2022-10-19T15:47:23.561Z,101507.35
2022-10-19T15:49:58.507Z,101509.74
2022-10-19T15:52:33.050Z,101515.76
2022-10-19T15:55:04.866Z,101514.14
2022-10-19T15:57:38.953Z,101518.41
2022-10-19T16:00:16.210Z,101516.08
2022-10-19T16:02:47.921Z,101516.26
2022-10-19T16:05:19.813Z,101517.55
2022-10-19T16:07:52.811Z,101522.36
2022-10-19T16:10:27.537Z,101528.30
2022-10-19T16:12:59.150Z,101529.63
2022-10-19T16:15:30.844Z,101529.95
2022-10-19T16:18:03.844Z,101537.27
2022-10-19T16:20:36.371Z,101532.42
2022-10-19T16:23:08.137Z,101535.44
2022-10-19T16:25:39.846Z,101542.55
2022-10-19T16:28:11.528Z,101544.77
2022-10-19T16:30:43.252Z,101547.13
2022-10-19T16:33:14.934Z,101546.95
2022-10-19T16:35:46.812Z,101548.39
2022-10-19T16:38:18.566Z,101546.10
2022-10-19T16:40:50.188Z,101553.19
2022-10-19T16:43:22.070Z,101552.27
2022-10-19T16:45:53.616Z,101556.31
2022-10-19T16:48:25.677Z,101554.73
2022-10-19T16:51:28.330Z,101556.92
2022-10-19T16:54:00.941Z,101561.92
2022-10-19T16:56:33.698Z,101565.19
2022-10-19T16:59:05.317Z,101562.75
2022-10-19T17:01:37.570Z,101564.43
2022-10-19T17:04:09.276Z,101567.89
2022-10-19T17:06:41.787Z,101568.81
2022-10-19T17:09:40.329Z,101575.09
2022-10-19T17:12:05.990Z,101578.31
2022-10-19T17:14:39.430Z,101582.66
2022-10-19T17:17:12.113Z,101585.18
2022-10-19T17:19:43.733Z,101587.98
2022-10-19T17:22:15.327Z,101591.11
2022-10-19T17:24:47.407Z,101596.77
2022-10-19T17:27:19.121Z,101598.41
2022-10-19T17:29:51.140Z,101600.55
2022-10-19T17:32:22.915Z,101598.95
2022-10-19T17:34:56.224Z,101606.02
2022-10-19T17:37:28.742Z,101602.77
2022-10-19T17:40:00.624Z,101606.64
2022-10-19T17:42:36.502Z,101608.09
2022-10-19T17:45:10.117Z,101606.60
2022-10-19T17:47:42.100Z,101609.15
2022-10-19T17:50:13.882Z,101608.05
2022-10-19T17:52:45.668Z,101607.85
2022-10-19T17:55:17.683Z,101610.20
2022-10-19T17:57:51.384Z,101615.60
2022-10-19T18:00:24.377Z,101619.64
2022-10-19T18:02:56.735Z,101621.69
2022-10-19T18:05:31.154Z,101620.61
2022-10-19T18:08:05.924Z,101624.73
2022-10-19T18:10:39.563Z,101630.73
2022-10-19T18:13:11.326Z,101632.58
2022-10-19T18:15:43.060Z,101630.93
2022-10-19T18:18:14.812Z,101634.55
2022-10-19T18:20:46.576Z,101638.90
2022-10-19T18:23:18.973Z,101642.71
2022-10-19T18:25:54.418Z,101645.95
2022-10-19T18:28:26.754Z,101646.11
2022-10-19T18:31:05.144Z,101647.38
2022-10-19T18:33:37.606Z,101648.81
2022-10-19T18:36:11.491Z,101649.17
2022-10-19T18:38:44.492Z,101648.81
2022-10-19T18:41:16.484Z,101647.00
2022-10-19T18:43:53.387Z,101643.75
2022-10-19T18:46:27.389Z,101643.41
2022-10-19T18:49:00.427Z,101644.15
2022-10-19T18:51:32.961Z,101648.65
2022-10-19T18:54:05.310Z,101645.41
2022-10-19T18:56:37.860Z,101645.95
2022-10-19T18:59:08.242Z,101647.92
2022-10-19T19:01:41.544Z,101649.35
2022-10-19T19:04:13.418Z,101646.29
2022-10-19T19:06:45.267Z,101646.62
2022-10-19T19:09:17.513Z,101652.04
2022-10-19T19:11:48.271Z,101653.31
2022-10-19T19:14:21.920Z,101659.64
2022-10-19T19:16:53.582Z,101664.09
2022-10-19T19:19:27.454Z,101669.30
2022-10-19T19:22:05.127Z,101669.64
2022-10-19T19:24:39.874Z,101668.54
2022-10-19T19:27:12.667Z,101668.77
2022-10-19T19:29:44.634Z,101666.59
2022-10-19T19:32:16.818Z,101667.49
2022-10-19T19:34:53.795Z,101670.77
2022-10-19T19:37:26.721Z,101673.33
2022-10-19T19:39:58.834Z,101676.56
2022-10-19T19:42:30.468Z,101675.09
2022-10-19T19:45:02.399Z,101677.80
2022-10-19T19:47:34.634Z,101677.58
2022-10-19T19:50:07.490Z,101676.89
2022-10-19T19:52:44.902Z,101676.19
2022-10-19T19:55:18.506Z,101676.20
2022-10-19T19:57:54.134Z,101678.67
2022-10-19T20:00:26.926Z,101683.00
2022-10-19T20:03:00.222Z,101683.17
2022-10-19T20:05:33.676Z,101681.73
2022-10-19T20:08:05.461Z,101681.52
2022-10-19T20:10:40.490Z,101682.08
2022-10-19T20:13:12.125Z,101683.29
2022-10-19T20:15:43.714Z,101680.41
2022-10-19T20:18:16.054Z,101682.95
2022-10-19T20:20:47.839Z,101687.28
2022-10-19T20:23:19.551Z,101690.07
2022-10-19T20:25:53.528Z,101687.45
2022-10-19T20:28:26.045Z,101692.51
2022-10-19T20:31:06.815Z,101695.84
2022-10-19T20:33:40.285Z,101699.17
2022-10-19T20:36:15.385Z,101701.48
2022-10-19T20:38:50.375Z,101700.39
2022-10-19T20:41:23.449Z,101702.05
2022-10-19T20:43:55.887Z,101699.61
2022-10-19T20:46:29.709Z,101693.98
2022-10-19T20:49:02.786Z,101685.39
2022-10-19T20:51:36.835Z,101689.11
2022-10-19T20:54:13.170Z,101694.51
2022-10-19T20:56:44.949Z,101699.26
2022-10-19T20:59:18.555Z,101693.91
2022-10-19T21:01:52.487Z,101696.02
2022-10-19T21:04:25.640Z,101697.59
2022-10-19T21:06:57.289Z,101699.27
2022-10-19T21:09:28.910Z,101700.20
2022-10-19T21:12:02.375Z,101704.57
2022-10-19T21:14:34.398Z,101700.27
2022-10-19T21:17:06.219Z,101702.60
2022-10-19T21:19:38.091Z,101702.73
2022-10-19T21:22:14.033Z,101703.67
2022-10-19T21:24:45.661Z,101703.05
2022-10-19T21:27:17.294Z,101706.13
2022-10-19T21:29:48.942Z,101703.80
2022-10-19T21:32:21.470Z,101710.59
2022-10-19T21:34:53.122Z,101709.58
2022-10-19T21:37:24.796Z,101708.70
2022-10-19T21:39:56.387Z,101710.73
2022-10-19T21:42:28.068Z,101707.90
2022-10-19T21:45:25.286Z,101709.03
2022-10-19T21:47:52.723Z,101709.87
2022-10-19T21:50:24.435Z,101706.94
2022-10-19T21:52:56.089Z,101705.33
2022-10-19T21:55:29.661Z,101701.73
2022-10-19T21:58:02.789Z,101702.48
2022-10-19T22:00:34.426Z,101699.73
2022-10-19T22:03:06.010Z,101701.08
2022-10-19T22:05:37.653Z,101704.23
2022-10-19T22:08:09.447Z,101703.27
2022-10-19T22:10:41.361Z,101705.46
2022-10-19T22:13:13.053Z,101711.52
2022-10-19T22:15:45.764Z,101710.84
2022-10-19T22:18:17.459Z,101710.73
2022-10-19T22:20:49.108Z,101713.63
2022-10-19T22:23:21.179Z,101717.02
2022-10-19T22:25:52.841Z,101713.98
2022-10-19T22:28:25.218Z,101721.08
2022-10-19T22:30:59.530Z,101725.88
2022-10-19T22:33:31.197Z,101732.90
2022-10-19T22:36:05.491Z,101729.54
2022-10-19T22:38:37.505Z,101723.93
2022-10-19T22:41:09.384Z,101724.66
2022-10-19T22:43:41.066Z,101733.34
2022-10-19T22:46:12.807Z,101732.29
2022-10-19T22:48:44.523Z,101727.60
2022-10-19T22:51:16.555Z,101731.04
2022-10-19T22:53:48.110Z,101728.45
2022-10-19T22:56:19.730Z,101729.48
2022-10-19T22:58:51.332Z,101730.00
2022-10-19T23:01:22.997Z,101739.77
2022-10-19T23:03:54.837Z,101742.16
2022-10-19T23:06:26.784Z,101743.96
2022-10-19T23:08:58.936Z,101736.76
2022-10-19T23:11:31.394Z,101738.83
2022-10-19T23:14:03.044Z,101742.37
2022-10-19T23:16:34.800Z,101745.80
2022-10-19T23:19:06.422Z,101751.52
2022-10-19T23:21:38.141Z,101749.58
2022-10-19T23:24:09.930Z,101744.72
2022-10-19T23:26:41.528Z,101742.81
2022-10-19T23:29:13.204Z,101741.09
2022-10-19T23:31:45.823Z,101743.67
2022-10-19T23:34:17.472Z,101749.54
2022-10-19T23:36:49.100Z,101746.84
2022-10-19T23:39:20.926Z,101746.04
2022-10-19T23:41:52.751Z,101747.95
2022-10-19T23:44:24.362Z,101744.98
2022-10-19T23:46:55.914Z,101752.42
2022-10-19T23:49:27.607Z,101755.70
2022-10-19T23:51:59.388Z,101757.95
2022-10-19T23:54:30.997Z,101753.89
2022-10-19T23:57:02.592Z,101752.03
2022-10-19T23:59:34.536Z,101754.13
